sensor_id;sensor_type;location;lat;lon;timestamp;pressure;altitude;pressure_sealevel;temperature;humidity
45763;BME280;37512;52.408;13.356;2023-02-14T00:03:44;103287.72;;;6.56;100.00
45763;BME280;37512;52.408;13.356;2023-02-14T00:07:45;103282.75;;;6.32;100.00
45763;BME280;37512;52.408;13.356;2023-02-14T00:11:47;103283.56;;;6.33;100.00
45763;BME280;37512;52.408;13.356;2023-02-14T00:15:48;103287.72;;;6.30;100.00
45763;BME280;37512;52.408;13.356;2023-02-14T00:19:50;103283.88;;;6.46;100.00
45763;BME280;37512;52.408;13.356;2023-02-14T00:23:52;103281.66;;;6.54;100.00
45763;BME280;37512;52.408;13.356;2023-02-14T00:27:54;103286.28;;;6.07;100.00
45763;BME280;37512;52.408;13.356;2023-02-14T00:31:55;103288.81;;;6.39;100.00
45763;BME280;37512;52.408;13.356;2023-02-14T00:35:57;103275.84;;;6.30;100.00
45763;BME280;37512;52.408;13.356;2023-02-14T00:40:02;103275.00;;;6.19;100.00
45763;BME280;37512;52.408;13.356;2023-02-14T00:44:04;103275.59;;;6.41;100.00
45763;BME280;37512;52.408;13.356;2023-02-14T00:48:06;103285.78;;;6.25;100.00
45763;BME280;37512;52.408;13.356;2023-02-14T00:52:07;103282.19;;;6.35;100.00
45763;BME280;37512;52.408;13.356;2023-02-14T00:56:09;103279.66;;;6.13;100.00
45763;BME280;37512;52.408;13.356;2023-02-14T01:00:10;103277.50;;;6.25;100.00
45763;BME280;37512;52.408;13.356;2023-02-14T01:04:12;103270.56;;;6.18;100.00
45763;BME280;37512;52.408;13.356;2023-02-14T01:08:13;103268.38;;;6.20;100.00
45763;BME280;37512;52.408;13.356;2023-02-14T01:12:14;103269.03;;;5.74;100.00
45763;BME280;37512;52.408;13.356;2023-02-14T01:16:19;103261.22;;;6.14;100.00
45763;BME280;37512;52.408;13.356;2023-02-14T01:20:21;103257.63;;;6.23;100.00
45763;BME280;37512;52.408;13.356;2023-02-14T01:24:22;103248.25;;;6.24;100.00
45763;BME280;37512;52.408;13.356;2023-02-14T01:28:26;103261.75;;;6.36;100.00
45763;BME280;37512;52.408;13.356;2023-02-14T01:32:29;103252.94;;;6.29;100.00
45763;BME280;37512;52.408;13.356;2023-02-14T01:36:31;103248.53;;;6.28;100.00
45763;BME280;37512;52.408;13.356;2023-02-14T01:40:33;103237.44;;;5.97;100.00
45763;BME280;37512;52.408;13.356;2023-02-14T01:48:36;103229.19;;;6.07;100.00
45763;BME280;37512;52.408;13.356;2023-02-14T01:52:40;103238.97;;;5.68;100.00
45763;BME280;37512;52.408;13.356;2023-02-14T01:56:44;103236.28;;;5.88;100.00
45763;BME280;37512;52.408;13.356;2023-02-14T02:00:47;103235.28;;;6.10;100.00
45763;BME280;37512;52.408;13.356;2023-02-14T02:04:59;103238.78;;;5.27;100.00
45763;BME280;37512;52.408;13.356;2023-02-14T02:13:04;103235.81;;;6.06;100.00
45763;BME280;37512;52.408;13.356;2023-02-14T02:17:19;103241.88;;;5.98;100.00
45763;BME280;37512;52.408;13.356;2023-02-14T02:38:35;103242.84;;;5.66;100.00
45763;BME280;37512;52.408;13.356;2023-02-14T02:42:34;103239.34;;;5.23;100.00
45763;BME280;37512;52.408;13.356;2023-02-14T02:50:52;103228.34;;;6.02;100.00
45763;BME280;37512;52.408;13.356;2023-02-14T02:55:25;103237.91;;;5.79;100.00
45763;BME280;37512;52.408;13.356;2023-02-14T02:59:30;103236.19;;;5.62;100.00
45763;BME280;37512;52.408;13.356;2023-02-14T03:03:32;103235.19;;;5.89;100.00
45763;BME280;37512;52.408;13.356;2023-02-14T03:07:54;103231.34;;;5.95;100.00
45763;BME280;37512;52.408;13.356;2023-02-14T03:20:15;103235.53;;;6.13;100.00
45763;BME280;37512;52.408;13.356;2023-02-14T03:33:01;103229.69;;;5.89;100.00
45763;BME280;37512;52.408;13.356;2023-02-14T03:41:10;103222.00;;;6.06;100.00
45763;BME280;37512;52.408;13.356;2023-02-14T03:45:15;103227.25;;;6.08;100.00
45763;BME280;37512;52.408;13.356;2023-02-14T03:49:20;103235.56;;;5.40;100.00
45763;BME280;37512;52.408;13.356;2023-02-14T03:53:23;103230.69;;;5.57;100.00
45763;BME280;37512;52.408;13.356;2023-02-14T03:57:34;103225.81;;;5.90;100.00
45763;BME280;37512;52.408;13.356;2023-02-14T04:01:41;103221.19;;;5.96;100.00
45763;BME280;37512;52.408;13.356;2023-02-14T04:05:45;103222.78;;;5.86;100.00
45763;BME280;37512;52.408;13.356;2023-02-14T04:09:52;103227.13;;;5.67;100.00
45763;BME280;37512;52.408;13.356;2023-02-14T04:13:53;103223.56;;;5.77;100.00
45763;BME280;37512;52.408;13.356;2023-02-14T04:17:55;103222.50;;;5.83;100.00
45763;BME280;37512;52.408;13.356;2023-02-14T04:22:15;103217.25;;;5.13;100.00
45763;BME280;37512;52.408;13.356;2023-02-14T04:26:16;103228.06;;;4.82;100.00
45763;BME280;37512;52.408;13.356;2023-02-14T04:30:18;103227.84;;;5.37;100.00
45763;BME280;37512;52.408;13.356;2023-02-14T04:34:21;103220.22;;;5.64;100.00
45763;BME280;37512;52.408;13.356;2023-02-14T04:38:22;103220.50;;;5.63;100.00
45763;BME280;37512;52.408;13.356;2023-02-14T04:42:23;103216.28;;;5.40;100.00
45763;BME280;37512;52.408;13.356;2023-02-14T04:46:25;103206.63;;;4.85;100.00
45763;BME280;37512;52.408;13.356;2023-02-14T04:50:26;103211.25;;;5.27;100.00
45763;BME280;37512;52.408;13.356;2023-02-14T04:54:28;103210.31;;;5.06;100.00
45763;BME280;37512;52.408;13.356;2023-02-14T04:58:29;103205.00;;;4.89;100.00
45763;BME280;37512;52.408;13.356;2023-02-14T05:02:30;103203.28;;;5.25;100.00
45763;BME280;37512;52.408;13.356;2023-02-14T05:06:32;103198.44;;;5.48;100.00
45763;BME280;37512;52.408;13.356;2023-02-14T05:10:33;103196.69;;;5.31;100.00
45763;BME280;37512;52.408;13.356;2023-02-14T05:14:35;103200.75;;;5.13;100.00
45763;BME280;37512;52.408;13.356;2023-02-14T05:18:36;103190.22;;;5.00;100.00
45763;BME280;37512;52.408;13.356;2023-02-14T05:22:38;103195.03;;;5.30;100.00
45763;BME280;37512;52.408;13.356;2023-02-14T05:26:39;103190.63;;;5.29;100.00
45763;BME280;37512;52.408;13.356;2023-02-14T05:30:41;103188.59;;;5.09;100.00
45763;BME280;37512;52.408;13.356;2023-02-14T05:34:42;103191.50;;;5.45;100.00
45763;BME280;37512;52.408;13.356;2023-02-14T05:38:44;103181.03;;;5.37;100.00
45763;BME280;37512;52.408;13.356;2023-02-14T05:42:45;103183.81;;;4.89;100.00
45763;BME280;37512;52.408;13.356;2023-02-14T05:46:46;103193.66;;;5.33;100.00
45763;BME280;37512;52.408;13.356;2023-02-14T05:50:48;103191.53;;;5.50;100.00
45763;BME280;37512;52.408;13.356;2023-02-14T05:54:49;103195.41;;;5.54;100.00
45763;BME280;37512;52.408;13.356;2023-02-14T05:58:51;103193.22;;;4.98;100.00
45763;BME280;37512;52.408;13.356;2023-02-14T06:02:52;103196.88;;;5.14;100.00
45763;BME280;37512;52.408;13.356;2023-02-14T06:06:53;103187.06;;;5.34;100.00
45763;BME280;37512;52.408;13.356;2023-02-14T06:10:55;103188.78;;;5.50;100.00
45763;BME280;37512;52.408;13.356;2023-02-14T06:14:56;103186.53;;;5.37;100.00
45763;BME280;37512;52.408;13.356;2023-02-14T06:18:57;103201.81;;;5.07;100.00
45763;BME280;37512;52.408;13.356;2023-02-14T06:22:59;103201.25;;;5.10;100.00
45763;BME280;37512;52.408;13.356;2023-02-14T06:27:01;103204.25;;;5.03;100.00
45763;BME280;37512;52.408;13.356;2023-02-14T06:31:02;103199.97;;;5.28;100.00
45763;BME280;37512;52.408;13.356;2023-02-14T06:35:05;103200.81;;;5.29;100.00
45763;BME280;37512;52.408;13.356;2023-02-14T06:39:06;103200.56;;;5.35;100.00
45763;BME280;37512;52.408;13.356;2023-02-14T06:43:08;103197.88;;;5.56;100.00
45763;BME280;37512;52.408;13.356;2023-02-14T06:47:09;103198.69;;;5.56;100.00
45763;BME280;37512;52.408;13.356;2023-02-14T06:51:11;103196.94;;;5.24;100.00
45763;BME280;37512;52.408;13.356;2023-02-14T06:55:12;103198.50;;;5.05;100.00
45763;BME280;37512;52.408;13.356;2023-02-14T06:59:14;103195.28;;;5.29;100.00
45763;BME280;37512;52.408;13.356;2023-02-14T07:03:15;103193.66;;;5.33;100.00
45763;BME280;37512;52.408;13.356;2023-02-14T07:07:17;103191.00;;;5.58;100.00
45763;BME280;37512;52.408;13.356;2023-02-14T07:11:18;103191.50;;;5.40;100.00
45763;BME280;37512;52.408;13.356;2023-02-14T07:15:20;103186.00;;;5.45;100.00
45763;BME280;37512;52.408;13.356;2023-02-14T07:19:21;103187.09;;;5.44;100.00
45763;BME280;37512;52.408;13.356;2023-02-14T07:23:23;103188.84;;;5.71;100.00
45763;BME280;37512;52.408;13.356;2023-02-14T07:27:24;103189.38;;;5.62;100.00
45763;BME280;37512;52.408;13.356;2023-02-14T07:31:25;103192.59;;;5.34;100.00
45763;BME280;37512;52.408;13.356;2023-02-14T07:35:27;103195.28;;;5.23;100.00
45763;BME280;37512;52.408;13.356;2023-02-14T07:39:28;103195.66;;;5.48;100.00
45763;BME280;37512;52.408;13.356;2023-02-14T07:43:30;103194.66;;;5.79;100.00
45763;BME280;37512;52.408;13.356;2023-02-14T07:47:33;103194.38;;;5.86;100.00
45763;BME280;37512;52.408;13.356;2023-02-14T07:51:34;103186.06;;;5.65;100.00
45763;BME280;37512;52.408;13.356;2023-02-14T07:55:36;103188.56;;;5.72;100.00
45763;BME280;37512;52.408;13.356;2023-02-14T07:59:37;103184.19;;;5.86;100.00
45763;BME280;37512;52.408;13.356;2023-02-14T08:03:39;103189.22;;;6.05;100.00
45763;BME280;37512;52.408;13.356;2023-02-14T08:07:40;103192.53;;;6.22;100.00
45763;BME280;37512;52.408;13.356;2023-02-14T08:11:43;103189.78;;;6.22;100.00
45763;BME280;37512;52.408;13.356;2023-02-14T08:16:03;103189.78;;;6.38;100.00
45763;BME280;37512;52.408;13.356;2023-02-14T08:20:05;103201.91;;;6.52;100.00
45763;BME280;37512;52.408;13.356;2023-02-14T08:24:07;103197.78;;;6.44;100.00
45763;BME280;37512;52.408;13.356;2023-02-14T08:28:09;103208.81;;;6.39;100.00
45763;BME280;37512;52.408;13.356;2023-02-14T08:32:10;103209.38;;;6.52;100.00
45763;BME280;37512;52.408;13.356;2023-02-14T08:36:12;103214.88;;;6.52;100.00
45763;BME280;37512;52.408;13.356;2023-02-14T08:40:13;103220.94;;;6.59;100.00
45763;BME280;37512;52.408;13.356;2023-02-14T08:44:15;103214.88;;;6.62;100.00
45763;BME280;37512;52.408;13.356;2023-02-14T08:48:17;103219.84;;;6.60;100.00
45763;BME280;37512;52.408;13.356;2023-02-14T08:52:18;103220.97;;;6.48;100.00
45763;BME280;37512;52.408;13.356;2023-02-14T08:56:19;103215.69;;;6.52;100.00
45763;BME280;37512;52.408;13.356;2023-02-14T09:00:22;103212.09;;;6.57;100.00
45763;BME280;37512;52.408;13.356;2023-02-14T09:04:24;103224.28;;;6.56;100.00
45763;BME280;37512;52.408;13.356;2023-02-14T09:08:25;103226.47;;;6.69;100.00
45763;BME280;37512;52.408;13.356;2023-02-14T09:12:27;103224.81;;;6.58;100.00
45763;BME280;37512;52.408;13.356;2023-02-14T09:16:29;103228.94;;;6.81;100.00
45763;BME280;37512;52.408;13.356;2023-02-14T09:20:30;103224.78;;;6.83;100.00
45763;BME280;37512;52.408;13.356;2023-02-14T09:24:32;103223.38;;;6.91;100.00
45763;BME280;37512;52.408;13.356;2023-02-14T09:28:34;103228.09;;;6.90;100.00
45763;BME280;37512;52.408;13.356;2023-02-14T09:32:35;103222.63;;;6.75;100.00
45763;BME280;37512;52.408;13.356;2023-02-14T09:36:37;103222.03;;;6.78;100.00
45763;BME280;37512;52.408;13.356;2023-02-14T09:40:38;103228.09;;;6.85;100.00
45763;BME280;37512;52.408;13.356;2023-02-14T09:44:47;103233.31;;;7.07;100.00
45763;BME280;37512;52.408;13.356;2023-02-14T09:48:51;103234.72;;;7.05;100.00
45763;BME280;37512;52.408;13.356;2023-02-14T09:52:55;103233.06;;;6.94;100.00
45763;BME280;37512;52.408;13.356;2023-02-14T09:56:59;103232.47;;;7.02;100.00
45763;BME280;37512;52.408;13.356;2023-02-14T10:13:28;103229.47;;;6.98;100.00
45763;BME280;37512;52.408;13.356;2023-02-14T10:17:35;103225.31;;;7.06;100.00
45763;BME280;37512;52.408;13.356;2023-02-14T10:25:41;103233.00;;;7.19;100.00
45763;BME280;37512;52.408;13.356;2023-02-14T10:29:45;103227.50;;;7.04;100.00
45763;BME280;37512;52.408;13.356;2023-02-14T10:33:56;103220.94;;;6.89;100.00
45763;BME280;37512;52.408;13.356;2023-02-14T10:58:21;103215.34;;;7.10;100.00
45763;BME280;37512;52.408;13.356;2023-02-14T11:02:28;103216.97;;;7.21;100.00
45763;BME280;37512;52.408;13.356;2023-02-14T11:06:31;103205.88;;;7.31;100.00
45763;BME280;37512;52.408;13.356;2023-02-14T11:10:33;103209.78;;;7.30;100.00
45763;BME280;37512;52.408;13.356;2023-02-14T11:18:23;103204.81;;;7.22;100.00
45763;BME280;37512;52.408;13.356;2023-02-14T11:22:29;103202.66;;;7.04;100.00
45763;BME280;37512;52.408;13.356;2023-02-14T11:26:33;103192.22;;;6.70;100.00
45763;BME280;37512;52.408;13.356;2023-02-14T11:30:39;103194.47;;;6.73;100.00
45763;BME280;37512;52.408;13.356;2023-02-14T11:34:50;103195.53;;;6.87;100.00
45763;BME280;37512;52.408;13.356;2023-02-14T11:39:00;103196.91;;;6.90;100.00
45763;BME280;37512;52.408;13.356;2023-02-14T11:47:19;103194.41;;;6.94;100.00
45763;BME280;37512;52.408;13.356;2023-02-14T11:51:38;103188.63;;;6.85;100.00
45763;BME280;37512;52.408;13.356;2023-02-14T11:55:43;103186.16;;;6.83;100.00
45763;BME280;37512;52.408;13.356;2023-02-14T11:59:48;103175.31;;;7.02;100.00
45763;BME280;37512;52.408;13.356;2023-02-14T12:03:53;103171.53;;;6.83;100.00
45763;BME280;37512;52.408;13.356;2023-02-14T12:07:57;103162.97;;;6.84;100.00
45763;BME280;37512;52.408;13.356;2023-02-14T12:12:14;103167.13;;;6.72;100.00
45763;BME280;37512;52.408;13.356;2023-02-14T12:16:22;103155.25;;;6.66;100.00
45763;BME280;37512;52.408;13.356;2023-02-14T12:20:58;103154.47;;;6.55;100.00
45763;BME280;37512;52.408;13.356;2023-02-14T12:25:17;103151.94;;;6.74;100.00
45763;BME280;37512;52.408;13.356;2023-02-14T12:29:22;103139.53;;;6.61;100.00
45763;BME280;37512;52.408;13.356;2023-02-14T12:33:28;103131.53;;;6.75;100.00
45763;BME280;37512;52.408;13.356;2023-02-14T12:37:40;103123.22;;;6.80;100.00
45763;BME280;37512;52.408;13.356;2023-02-14T12:50:41;103108.94;;;6.53;100.00
45763;BME280;37512;52.408;13.356;2023-02-14T13:03:37;103102.34;;;6.33;100.00
45763;BME280;37512;52.408;13.356;2023-02-14T13:16:45;103092.34;;;6.73;100.00
45763;BME280;37512;52.408;13.356;2023-02-14T13:25:00;103092.41;;;6.27;100.00
45763;BME280;37512;52.408;13.356;2023-02-14T13:29:08;103084.69;;;6.44;100.00
45763;BME280;37512;52.408;13.356;2023-02-14T13:33:23;103075.91;;;6.17;100.00
45763;BME280;37512;52.408;13.356;2023-02-14T13:37:27;103074.75;;;6.38;100.00
45763;BME280;37512;52.408;13.356;2023-02-14T13:41:28;103067.50;;;6.73;100.00
45763;BME280;37512;52.408;13.356;2023-02-14T13:49:32;103073.34;;;6.41;100.00
45763;BME280;37512;52.408;13.356;2023-02-14T13:53:46;103067.06;;;6.20;100.00
45763;BME280;37512;52.408;13.356;2023-02-14T13:58:04;103070.03;;;6.54;100.00
45763;BME280;37512;52.408;13.356;2023-02-14T14:02:29;103073.09;;;6.53;100.00
45763;BME280;37512;52.408;13.356;2023-02-14T14:15:15;103068.66;;;6.46;100.00
45763;BME280;37512;52.408;13.356;2023-02-14T14:23:29;103052.56;;;6.84;100.00
45763;BME280;37512;52.408;13.356;2023-02-14T14:27:44;103053.13;;;6.76;100.00
45763;BME280;37512;52.408;13.356;2023-02-14T14:31:47;103051.00;;;6.47;100.00
45763;BME280;37512;52.408;13.356;2023-02-14T14:40:02;103046.81;;;6.70;100.00
45763;BME280;37512;52.408;13.356;2023-02-14T14:44:04;103048.28;;;6.27;100.00
45763;BME280;37512;52.408;13.356;2023-02-14T14:48:09;103048.03;;;6.28;100.00
45763;BME280;37512;52.408;13.356;2023-02-14T14:52:42;103043.31;;;6.39;100.00
45763;BME280;37512;52.408;13.356;2023-02-14T14:56:57;103047.16;;;6.43;100.00
45763;BME280;37512;52.408;13.356;2023-02-14T15:01:02;103035.56;;;6.46;100.00
45763;BME280;37512;52.408;13.356;2023-02-14T15:05:23;103033.34;;;6.54;100.00
45763;BME280;37512;52.408;13.356;2023-02-14T15:09:32;103029.75;;;6.53;100.00
45763;BME280;37512;52.408;13.356;2023-02-14T15:13:39;103025.19;;;6.02;100.00
45763;BME280;37512;52.408;13.356;2023-02-14T15:17:54;103024.63;;;5.95;100.00
45763;BME280;37512;52.408;13.356;2023-02-14T15:21:56;103034.25;;;6.08;100.00
45763;BME280;37512;52.408;13.356;2023-02-14T15:25:57;103031.75;;;5.86;100.00
45763;BME280;37512;52.408;13.356;2023-02-14T15:30:02;103013.88;;;5.89;100.00
45763;BME280;37512;52.408;13.356;2023-02-14T15:34:05;103011.09;;;5.63;100.00
45763;BME280;37512;52.408;13.356;2023-02-14T15:38:09;103012.78;;;5.79;100.00
45763;BME280;37512;52.408;13.356;2023-02-14T15:42:21;103006.44;;;5.74;100.00
45763;BME280;37512;52.408;13.356;2023-02-14T15:46:37;102990.72;;;5.79;100.00
45763;BME280;37512;52.408;13.356;2023-02-14T15:50:47;102987.97;;;5.79;100.00
45763;BME280;37512;52.408;13.356;2023-02-14T15:54:50;102990.44;;;5.76;100.00
45763;BME280;37512;52.408;13.356;2023-02-14T15:59:00;102987.13;;;5.99;100.00
45763;BME280;37512;52.408;13.356;2023-02-14T16:03:05;102985.50;;;5.78;100.00
45763;BME280;37512;52.408;13.356;2023-02-14T16:07:34;102983.81;;;5.77;100.00
45763;BME280;37512;52.408;13.356;2023-02-14T16:11:36;102982.19;;;5.76;100.00
45763;BME280;37512;52.408;13.356;2023-02-14T16:15:43;102982.16;;;5.86;100.00
45763;BME280;37512;52.408;13.356;2023-02-14T16:19:55;102976.94;;;5.49;100.00
45763;BME280;37512;52.408;13.356;2023-02-14T16:28:07;102975.88;;;5.50;100.00
45763;BME280;37512;52.408;13.356;2023-02-14T16:32:12;102968.69;;;5.54;100.00
45763;BME280;37512;52.408;13.356;2023-02-14T16:36:22;102971.16;;;5.45;100.00
45763;BME280;37512;52.408;13.356;2023-02-14T16:40:26;102975.31;;;5.27;100.00
45763;BME280;37512;52.408;13.356;2023-02-14T16:44:29;102978.91;;;5.43;100.00
45763;BME280;37512;52.408;13.356;2023-02-14T16:48:31;102981.91;;;5.41;100.00
45763;BME280;37512;52.408;13.356;2023-02-14T16:52:32;102974.47;;;5.68;100.00
45763;BME280;37512;52.408;13.356;2023-02-14T17:00:38;102971.72;;;5.62;100.00
45763;BME280;37512;52.408;13.356;2023-02-14T17:04:40;102978.88;;;5.48;100.00
45763;BME280;37512;52.408;13.356;2023-02-14T17:08:42;102984.41;;;5.69;100.00
45763;BME280;37512;52.408;13.356;2023-02-14T17:12:45;102978.59;;;5.80;100.00
45763;BME280;37512;52.408;13.356;2023-02-14T17:16:48;102979.41;;;5.81;100.00
45763;BME280;37512;52.408;13.356;2023-02-14T17:20:50;102984.09;;;5.65;100.00
45763;BME280;37512;52.408;13.356;2023-02-14T17:24:52;102990.44;;;5.40;100.00
45763;BME280;37512;52.408;13.356;2023-02-14T17:28:56;102977.22;;;5.42;100.00
45763;BME280;37512;52.408;13.356;2023-02-14T17:32:57;102972.56;;;5.48;100.00
45763;BME280;37512;52.408;13.356;2023-02-14T17:36:59;102970.63;;;5.43;100.00
45763;BME280;37512;52.408;13.356;2023-02-14T17:41:15;102973.91;;;5.14;100.00
45763;BME280;37512;52.408;13.356;2023-02-14T17:45:17;102978.88;;;5.58;100.00
45763;BME280;37512;52.408;13.356;2023-02-14T17:49:18;102979.97;;;5.21;100.00
45763;BME280;37512;52.408;13.356;2023-02-14T17:53:20;102964.00;;;5.13;100.00
45763;BME280;37512;52.408;13.356;2023-02-14T17:57:21;102966.47;;;5.15;100.00
45763;BME280;37512;52.408;13.356;2023-02-14T18:01:25;102957.91;;;5.01;100.00
45763;BME280;37512;52.408;13.356;2023-02-14T18:05:27;102957.97;;;5.52;100.00
45763;BME280;37512;52.408;13.356;2023-02-14T18:09:29;102952.69;;;5.40;100.00
45763;BME280;37512;52.408;13.356;2023-02-14T18:13:31;102949.97;;;5.45;100.00
45763;BME280;37512;52.408;13.356;2023-02-14T18:17:32;102951.06;;;5.50;100.00
45763;BME280;37512;52.408;13.356;2023-02-14T18:21:35;102943.38;;;5.36;100.00
45763;BME280;37512;52.408;13.356;2023-02-14T18:25:48;102938.66;;;5.42;100.00
45763;BME280;37512;52.408;13.356;2023-02-14T18:29:49;102943.63;;;5.45;100.00
45763;BME280;37512;52.408;13.356;2023-02-14T18:33:51;102930.41;;;5.21;100.00
45763;BME280;37512;52.408;13.356;2023-02-14T18:37:52;102928.75;;;5.36;100.00
45763;BME280;37512;52.408;13.356;2023-02-14T18:41:54;102923.53;;;5.39;100.00
45763;BME280;37512;52.408;13.356;2023-02-14T18:46:08;102925.47;;;5.39;100.00
45763;BME280;37512;52.408;13.356;2023-02-14T18:50:10;102916.66;;;5.11;100.00
45763;BME280;37512;52.408;13.356;2023-02-14T18:54:12;102908.66;;;5.30;100.00
45763;BME280;37512;52.408;13.356;2023-02-14T18:58:13;102911.16;;;5.32;100.00
45763;BME280;37512;52.408;13.356;2023-02-14T19:02:14;102901.22;;;5.10;100.00
45763;BME280;37512;52.408;13.356;2023-02-14T19:06:17;102892.13;;;5.40;100.00
45763;BME280;37512;52.408;13.356;2023-02-14T19:10:19;102900.09;;;5.42;100.00
45763;BME280;37512;52.408;13.356;2023-02-14T19:14:20;102891.31;;;5.24;100.00
45763;BME280;37512;52.408;13.356;2023-02-14T19:18:22;102886.91;;;5.13;100.00
45763;BME280;37512;52.408;13.356;2023-02-14T19:22:26;102883.88;;;5.10;100.00
45763;BME280;37512;52.408;13.356;2023-02-14T19:26:30;102880.84;;;5.21;100.00
45763;BME280;37512;52.408;13.356;2023-02-14T19:30:37;102881.94;;;5.10;100.00
45763;BME280;37512;52.408;13.356;2023-02-14T19:34:38;102880.56;;;5.02;100.00
45763;BME280;37512;52.408;13.356;2023-02-14T19:38:41;102883.06;;;5.09;100.00
45763;BME280;37512;52.408;13.356;2023-02-14T19:42:43;102883.88;;;5.10;100.00
45763;BME280;37512;52.408;13.356;2023-02-14T19:46:46;102884.44;;;5.12;100.00
45763;BME280;37512;52.408;13.356;2023-02-14T19:50:48;102881.66;;;5.22;100.00
45763;BME280;37512;52.408;13.356;2023-02-14T19:54:50;102873.97;;;5.19;100.00
45763;BME280;37512;52.408;13.356;2023-02-14T19:58:52;102874.22;;;5.33;100.00
45763;BME280;37512;52.408;13.356;2023-02-14T20:02:53;102872.59;;;5.21;100.00
45763;BME280;37512;52.408;13.356;2023-02-14T20:06:55;102877.56;;;5.24;100.00
45763;BME280;37512;52.408;13.356;2023-02-14T20:10:57;102875.91;;;5.18;100.00
45763;BME280;37512;52.408;13.356;2023-02-14T20:14:59;102877.00;;;5.22;100.00
45763;BME280;37512;52.408;13.356;2023-02-14T20:19:07;102869.00;;;5.11;100.00
45763;BME280;37512;52.408;13.356;2023-02-14T20:23:08;102862.69;;;5.05;100.00
45763;BME280;37512;52.408;13.356;2023-02-14T20:27:10;102854.69;;;4.98;100.00
45763;BME280;37512;52.408;13.356;2023-02-14T20:31:14;102848.91;;;5.05;100.00
45763;BME280;37512;52.408;13.356;2023-02-14T20:35:16;102853.88;;;4.77;100.00
45763;BME280;37512;52.408;13.356;2023-02-14T20:39:19;102847.25;;;4.94;100.00
45763;BME280;37512;52.408;13.356;2023-02-14T20:43:24;102842.31;;;4.96;100.00
45763;BME280;37512;52.408;13.356;2023-02-14T20:47:26;102842.84;;;4.88;100.00
45763;BME280;37512;52.408;13.356;2023-02-14T20:51:28;102835.13;;;5.15;100.00
45763;BME280;37512;52.408;13.356;2023-02-14T20:55:30;102842.03;;;5.08;100.00
45763;BME280;37512;52.408;13.356;2023-02-14T20:59:31;102839.00;;;4.78;100.00
45763;BME280;37512;52.408;13.356;2023-02-14T21:03:33;102831.56;;;4.94;100.00
45763;BME280;37512;52.408;13.356;2023-02-14T21:07:36;102836.53;;;4.77;100.00
45763;BME280;37512;52.408;13.356;2023-02-14T21:11:38;102834.56;;;4.62;100.00
45763;BME280;37512;52.408;13.356;2023-02-14T21:15:39;102839.00;;;4.63;100.00
45763;BME280;37512;52.408;13.356;2023-02-14T21:19:41;102820.81;;;4.57;100.00
45763;BME280;37512;52.408;13.356;2023-02-14T21:23:43;102823.56;;;4.62;100.00
45763;BME280;37512;52.408;13.356;2023-02-14T21:27:44;102818.63;;;4.69;100.00
45763;BME280;37512;52.408;13.356;2023-02-14T21:31:46;102821.38;;;4.59;100.00
45763;BME280;37512;52.408;13.356;2023-02-14T21:35:48;102819.72;;;4.53;100.00
45763;BME280;37512;52.408;13.356;2023-02-14T21:39:50;102821.13;;;4.66;100.00
45763;BME280;37512;52.408;13.356;2023-02-14T21:43:52;102815.31;;;4.62;100.00
45763;BME280;37512;52.408;13.356;2023-02-14T21:47:54;102808.41;;;4.34;100.00
45763;BME280;37512;52.408;13.356;2023-02-14T21:52:14;102805.38;;;4.35;100.00
45763;BME280;37512;52.408;13.356;2023-02-14T21:56:17;102786.69;;;4.37;100.00
45763;BME280;37512;52.408;13.356;2023-02-14T22:00:20;102794.94;;;4.32;100.00
45763;BME280;37512;52.408;13.356;2023-02-14T22:04:23;102796.31;;;4.40;100.00
45763;BME280;37512;52.408;13.356;2023-02-14T22:08:24;102793.84;;;4.49;100.00
45763;BME280;37512;52.408;13.356;2023-02-14T22:12:27;102793.25;;;4.16;100.00
45763;BME280;37512;52.408;13.356;2023-02-14T22:16:28;102798.19;;;4.14;100.00
45763;BME280;37512;52.408;13.356;2023-02-14T22:20:30;102794.81;;;3.91;100.00
45763;BME280;37512;52.408;13.356;2023-02-14T22:24:32;102782.94;;;3.81;100.00
45763;BME280;37512;52.408;13.356;2023-02-14T22:28:33;102783.00;;;3.91;100.00
45763;BME280;37512;52.408;13.356;2023-02-14T22:32:35;102775.56;;;3.86;100.00
45763;BME280;37512;52.408;13.356;2023-02-14T22:36:36;102770.56;;;3.78;100.00
45763;BME280;37512;52.408;13.356;2023-02-14T22:40:37;102763.38;;;3.62;100.00
45763;BME280;37512;52.408;13.356;2023-02-14T22:44:39;102760.63;;;3.62;100.00
45763;BME280;37512;52.408;13.356;2023-02-14T22:48:40;102752.69;;;3.65;100.00
45763;BME280;37512;52.408;13.356;2023-02-14T22:52:42;102756.59;;;3.80;100.00
45763;BME280;37512;52.408;13.356;2023-02-14T22:56:46;102751.63;;;3.76;100.00
45763;BME280;37512;52.408;13.356;2023-02-14T23:00:47;102750.22;;;3.74;100.00
45763;BME280;37512;52.408;13.356;2023-02-14T23:04:49;102750.53;;;3.83;100.00
45763;BME280;37512;52.408;13.356;2023-02-14T23:08:52;102745.03;;;3.67;100.00
45763;BME280;37512;52.408;13.356;2023-02-14T23:12:53;102741.91;;;3.48;100.00
45763;BME280;37512;52.408;13.356;2023-02-14T23:17:14;102746.25;;;3.44;100.00
45763;BME280;37512;52.408;13.356;2023-02-14T23:21:16;102743.03;;;3.52;100.00
45763;BME280;37512;52.408;13.356;2023-02-14T23:25:36;102736.41;;;3.48;100.00
45763;BME280;37512;52.408;13.356;2023-02-14T23:29:37;102736.38;;;3.38;100.00
45763;BME280;37512;52.408;13.356;2023-02-14T23:33:39;102739.91;;;3.33;100.00
45763;BME280;37512;52.408;13.356;2023-02-14T23:37:40;102730.53;;;3.24;100.00